sensor_id;sensor_type;location;lat;lon;timestamp;temperature;humidity
11426;DHT22;5769;47.998;7.788;2024-03-08T00:00:49;19.90;73.70
11426;DHT22;5769;47.998;7.788;2024-03-08T00:03:17;19.90;73.70
11426;DHT22;5769;47.998;7.788;2024-03-08T00:05:44;19.90;73.70
11426;DHT22;5769;47.998;7.788;2024-03-08T00:08:11;19.90;73.70
11426;DHT22;5769;47.998;7.788;2024-03-08T00:10:37;19.90;73.70
11426;DHT22;5769;47.998;7.788;2024-03-08T00:13:05;19.80;73.70
11426;DHT22;5769;47.998;7.788;2024-03-08T00:15:35;19.90;73.70
11426;DHT22;5769;47.998;7.788;2024-03-08T00:18:02;19.80;73.70
11426;DHT22;5769;47.998;7.788;2024-03-08T00:20:31;19.80;73.70
11426;DHT22;5769;47.998;7.788;2024-03-08T00:22:58;19.80;73.70
11426;DHT22;5769;47.998;7.788;2024-03-08T00:25:25;19.80;73.70
11426;DHT22;5769;47.998;7.788;2024-03-08T00:27:52;19.80;73.70
11426;DHT22;5769;47.998;7.788;2024-03-08T00:30:22;19.70;73.60
11426;DHT22;5769;47.998;7.788;2024-03-08T00:32:50;19.70;73.70
11426;DHT22;5769;47.998;7.788;2024-03-08T00:35:17;19.70;73.60
11426;DHT22;5769;47.998;7.788;2024-03-08T00:37:44;19.70;73.60
11426;DHT22;5769;47.998;7.788;2024-03-08T00:40:13;19.70;73.60
11426;DHT22;5769;47.998;7.788;2024-03-08T00:42:39;19.70;73.60
11426;DHT22;5769;47.998;7.788;2024-03-08T00:45:08;19.70;73.60
11426;DHT22;5769;47.998;7.788;2024-03-08T00:47:36;19.70;73.60
11426;DHT22;5769;47.998;7.788;2024-03-08T00:50:04;19.70;73.60
11426;DHT22;5769;47.998;7.788;2024-03-08T00:52:31;19.70;73.60
11426;DHT22;5769;47.998;7.788;2024-03-08T00:55:01;19.70;73.60
11426;DHT22;5769;47.998;7.788;2024-03-08T00:57:28;19.70;73.60
11426;DHT22;5769;47.998;7.788;2024-03-08T00:59:55;19.60;73.50
11426;DHT22;5769;47.998;7.788;2024-03-08T01:02:22;19.60;73.50
11426;DHT22;5769;47.998;7.788;2024-03-08T01:04:52;19.60;73.50
11426;DHT22;5769;47.998;7.788;2024-03-08T01:07:19;19.60;73.50
11426;DHT22;5769;47.998;7.788;2024-03-08T01:09:46;19.60;73.50
11426;DHT22;5769;47.998;7.788;2024-03-08T01:12:12;19.60;73.50
11426;DHT22;5769;47.998;7.788;2024-03-08T01:14:40;19.60;73.50
11426;DHT22;5769;47.998;7.788;2024-03-08T01:17:05;19.60;73.50
11426;DHT22;5769;47.998;7.788;2024-03-08T01:19:32;19.60;73.50
11426;DHT22;5769;47.998;7.788;2024-03-08T01:22:01;19.60;73.50
11426;DHT22;5769;47.998;7.788;2024-03-08T01:24:28;19.60;73.50
11426;DHT22;5769;47.998;7.788;2024-03-08T01:26:55;19.60;74.20
11426;DHT22;5769;47.998;7.788;2024-03-08T01:29:22;19.60;73.50
11426;DHT22;5769;47.998;7.788;2024-03-08T01:31:49;19.50;73.40
11426;DHT22;5769;47.998;7.788;2024-03-08T01:34:20;19.50;73.50
11426;DHT22;5769;47.998;7.788;2024-03-08T01:36:48;19.50;73.50
11426;DHT22;5769;47.998;7.788;2024-03-08T01:39:18;19.50;73.50
11426;DHT22;5769;47.998;7.788;2024-03-08T01:41:53;19.50;73.60
11426;DHT22;5769;47.998;7.788;2024-03-08T01:44:22;19.50;73.60
11426;DHT22;5769;47.998;7.788;2024-03-08T01:46:56;19.50;73.60
11426;DHT22;5769;47.998;7.788;2024-03-08T01:49:24;19.50;73.60
11426;DHT22;5769;47.998;7.788;2024-03-08T01:51:55;19.50;73.60
11426;DHT22;5769;47.998;7.788;2024-03-08T01:54:27;19.50;73.60
11426;DHT22;5769;47.998;7.788;2024-03-08T01:56:57;19.40;73.60
11426;DHT22;5769;47.998;7.788;2024-03-08T01:59:25;19.50;73.60
11426;DHT22;5769;47.998;7.788;2024-03-08T02:01:58;19.40;73.60
11426;DHT22;5769;47.998;7.788;2024-03-08T02:04:28;19.50;73.70
11426;DHT22;5769;47.998;7.788;2024-03-08T02:06:58;19.40;73.70
11426;DHT22;5769;47.998;7.788;2024-03-08T02:09:32;19.40;73.60
11426;DHT22;5769;47.998;7.788;2024-03-08T02:12:17;19.40;73.60
11426;DHT22;5769;47.998;7.788;2024-03-08T02:14:56;19.40;73.70
11426;DHT22;5769;47.998;7.788;2024-03-08T02:17:25;19.40;73.70
11426;DHT22;5769;47.998;7.788;2024-03-08T02:19:58;19.40;73.70
11426;DHT22;5769;47.998;7.788;2024-03-08T02:22:28;19.40;73.70
11426;DHT22;5769;47.998;7.788;2024-03-08T02:24:56;19.40;73.70
11426;DHT22;5769;47.998;7.788;2024-03-08T02:27:32;19.30;73.60
11426;DHT22;5769;47.998;7.788;2024-03-08T02:30:00;19.40;73.70
11426;DHT22;5769;47.998;7.788;2024-03-08T02:32:27;19.40;73.70
11426;DHT22;5769;47.998;7.788;2024-03-08T02:34:56;19.30;73.70
11426;DHT22;5769;47.998;7.788;2024-03-08T02:37:29;19.30;74.40
11426;DHT22;5769;47.998;7.788;2024-03-08T02:40:00;19.30;73.80
11426;DHT22;5769;47.998;7.788;2024-03-08T02:42:27;19.30;73.80
11426;DHT22;5769;47.998;7.788;2024-03-08T02:44:54;19.30;73.70
11426;DHT22;5769;47.998;7.788;2024-03-08T02:47:24;19.30;73.70
11426;DHT22;5769;47.998;7.788;2024-03-08T02:49:51;19.30;74.50
11426;DHT22;5769;47.998;7.788;2024-03-08T02:52:23;19.30;73.80
11426;DHT22;5769;47.998;7.788;2024-03-08T02:54:54;19.30;73.80
11426;DHT22;5769;47.998;7.788;2024-03-08T02:57:23;19.30;73.80
11426;DHT22;5769;47.998;7.788;2024-03-08T02:59:53;19.30;73.70
11426;DHT22;5769;47.998;7.788;2024-03-08T03:02:25;19.30;73.80
11426;DHT22;5769;47.998;7.788;2024-03-08T03:04:52;19.30;73.80
11426;DHT22;5769;47.998;7.788;2024-03-08T03:07:21;19.30;73.80
11426;DHT22;5769;47.998;7.788;2024-03-08T03:09:48;19.30;73.80
11426;DHT22;5769;47.998;7.788;2024-03-08T03:12:23;19.30;73.80
11426;DHT22;5769;47.998;7.788;2024-03-08T03:14:50;19.30;73.80
11426;DHT22;5769;47.998;7.788;2024-03-08T03:17:23;19.30;73.80
11426;DHT22;5769;47.998;7.788;2024-03-08T03:19:54;19.30;73.80
11426;DHT22;5769;47.998;7.788;2024-03-08T03:22:29;19.20;73.60
11426;DHT22;5769;47.998;7.788;2024-03-08T03:24:56;19.20;73.60
11426;DHT22;5769;47.998;7.788;2024-03-08T03:27:27;19.20;73.70
11426;DHT22;5769;47.998;7.788;2024-03-08T03:29:56;19.30;73.70
11426;DHT22;5769;47.998;7.788;2024-03-08T03:32:26;19.20;73.60
11426;DHT22;5769;47.998;7.788;2024-03-08T03:34:55;19.20;73.60
11426;DHT22;5769;47.998;7.788;2024-03-08T03:37:30;19.20;73.70
11426;DHT22;5769;47.998;7.788;2024-03-08T03:39:59;19.20;73.70
11426;DHT22;5769;47.998;7.788;2024-03-08T03:42:31;19.20;73.70
11426;DHT22;5769;47.998;7.788;2024-03-08T03:45:02;19.20;73.70
11426;DHT22;5769;47.998;7.788;2024-03-08T03:47:35;19.20;73.60
11426;DHT22;5769;47.998;7.788;2024-03-08T03:50:08;19.20;73.60
11426;DHT22;5769;47.998;7.788;2024-03-08T03:52:38;19.20;73.60
11426;DHT22;5769;47.998;7.788;2024-03-08T03:55:05;19.20;73.60
11426;DHT22;5769;47.998;7.788;2024-03-08T03:57:36;19.20;73.70
11426;DHT22;5769;47.998;7.788;2024-03-08T04:00:12;19.20;73.60
11426;DHT22;5769;47.998;7.788;2024-03-08T04:02:42;19.20;73.60
11426;DHT22;5769;47.998;7.788;2024-03-08T04:05:14;19.20;73.60
11426;DHT22;5769;47.998;7.788;2024-03-08T04:07:44;19.20;73.80
11426;DHT22;5769;47.998;7.788;2024-03-08T04:10:14;19.20;73.60
11426;DHT22;5769;47.998;7.788;2024-03-08T04:12:48;19.20;73.60
11426;DHT22;5769;47.998;7.788;2024-03-08T04:15:17;19.20;73.60
11426;DHT22;5769;47.998;7.788;2024-03-08T04:17:44;19.20;73.70
11426;DHT22;5769;47.998;7.788;2024-03-08T04:20:14;19.20;73.70
11426;DHT22;5769;47.998;7.788;2024-03-08T04:22:49;19.20;73.70
11426;DHT22;5769;47.998;7.788;2024-03-08T04:25:15;19.20;73.60
11426;DHT22;5769;47.998;7.788;2024-03-08T04:27:42;19.20;73.60
11426;DHT22;5769;47.998;7.788;2024-03-08T04:30:13;19.20;73.60
11426;DHT22;5769;47.998;7.788;2024-03-08T04:32:40;19.10;73.60
11426;DHT22;5769;47.998;7.788;2024-03-08T04:35:09;19.10;73.60
11426;DHT22;5769;47.998;7.788;2024-03-08T04:37:37;19.10;73.60
11426;DHT22;5769;47.998;7.788;2024-03-08T04:40:07;19.10;73.50
11426;DHT22;5769;47.998;7.788;2024-03-08T04:42:35;19.20;73.70
11426;DHT22;5769;47.998;7.788;2024-03-08T04:45:08;19.10;73.60
11426;DHT22;5769;47.998;7.788;2024-03-08T04:47:37;19.10;73.60
11426;DHT22;5769;47.998;7.788;2024-03-08T04:50:05;19.10;73.60
11426;DHT22;5769;47.998;7.788;2024-03-08T04:52:35;19.10;73.50
11426;DHT22;5769;47.998;7.788;2024-03-08T04:55:02;19.10;73.60
11426;DHT22;5769;47.998;7.788;2024-03-08T04:57:33;19.10;73.60
11426;DHT22;5769;47.998;7.788;2024-03-08T05:00:06;19.10;73.60
11426;DHT22;5769;47.998;7.788;2024-03-08T05:02:38;19.10;73.60
11426;DHT22;5769;47.998;7.788;2024-03-08T05:05:07;19.10;73.60
11426;DHT22;5769;47.998;7.788;2024-03-08T05:07:42;19.10;73.50
11426;DHT22;5769;47.998;7.788;2024-03-08T05:10:14;19.10;73.60
11426;DHT22;5769;47.998;7.788;2024-03-08T05:12:42;19.10;73.50
11426;DHT22;5769;47.998;7.788;2024-03-08T05:15:12;19.10;73.50
11426;DHT22;5769;47.998;7.788;2024-03-08T05:17:44;19.10;73.50
11426;DHT22;5769;47.998;7.788;2024-03-08T05:20:16;19.10;73.50
11426;DHT22;5769;47.998;7.788;2024-03-08T05:22:47;19.10;73.50
11426;DHT22;5769;47.998;7.788;2024-03-08T05:25:20;19.10;73.50
11426;DHT22;5769;47.998;7.788;2024-03-08T05:27:47;19.10;73.50
11426;DHT22;5769;47.998;7.788;2024-03-08T05:30:14;19.10;73.60
11426;DHT22;5769;47.998;7.788;2024-03-08T05:32:52;19.10;73.50
11426;DHT22;5769;47.998;7.788;2024-03-08T05:35:19;19.10;73.50
11426;DHT22;5769;47.998;7.788;2024-03-08T05:37:51;19.10;73.50
11426;DHT22;5769;47.998;7.788;2024-03-08T05:40:18;19.10;73.50
11426;DHT22;5769;47.998;7.788;2024-03-08T05:42:50;19.10;73.50
11426;DHT22;5769;47.998;7.788;2024-03-08T05:45:16;19.00;73.50
11426;DHT22;5769;47.998;7.788;2024-03-08T05:47:45;19.10;73.50
11426;DHT22;5769;47.998;7.788;2024-03-08T05:50:21;19.10;73.50
11426;DHT22;5769;47.998;7.788;2024-03-08T05:52:50;19.10;73.50
11426;DHT22;5769;47.998;7.788;2024-03-08T05:55:18;19.10;73.50
11426;DHT22;5769;47.998;7.788;2024-03-08T05:57:53;19.00;73.40
11426;DHT22;5769;47.998;7.788;2024-03-08T06:00:20;19.10;73.50
11426;DHT22;5769;47.998;7.788;2024-03-08T06:02:51;19.00;73.40
11426;DHT22;5769;47.998;7.788;2024-03-08T06:05:20;19.10;73.50
11426;DHT22;5769;47.998;7.788;2024-03-08T06:07:51;19.00;73.40
11426;DHT22;5769;47.998;7.788;2024-03-08T06:10:22;19.00;73.40
11426;DHT22;5769;47.998;7.788;2024-03-08T06:12:52;19.00;73.40
11426;DHT22;5769;47.998;7.788;2024-03-08T06:15:21;19.10;73.50
11426;DHT22;5769;47.998;7.788;2024-03-08T06:17:51;19.00;73.40
11426;DHT22;5769;47.998;7.788;2024-03-08T06:20:18;19.00;73.40
11426;DHT22;5769;47.998;7.788;2024-03-08T06:22:53;19.10;73.50
11426;DHT22;5769;47.998;7.788;2024-03-08T06:25:23;19.00;73.40
11426;DHT22;5769;47.998;7.788;2024-03-08T06:27:49;19.00;73.40
11426;DHT22;5769;47.998;7.788;2024-03-08T06:30:17;19.00;73.40
11426;DHT22;5769;47.998;7.788;2024-03-08T06:32:51;19.00;73.40
11426;DHT22;5769;47.998;7.788;2024-03-08T06:35:18;19.00;73.40
11426;DHT22;5769;47.998;7.788;2024-03-08T06:37:52;19.00;73.40
11426;DHT22;5769;47.998;7.788;2024-03-08T06:40:22;19.00;73.30
11426;DHT22;5769;47.998;7.788;2024-03-08T06:42:52;19.00;73.40
11426;DHT22;5769;47.998;7.788;2024-03-08T06:45:18;19.00;73.30
11426;DHT22;5769;47.998;7.788;2024-03-08T06:47:46;19.00;73.30
11426;DHT22;5769;47.998;7.788;2024-03-08T06:50:19;19.00;73.40
11426;DHT22;5769;47.998;7.788;2024-03-08T06:52:46;19.00;73.30
11426;DHT22;5769;47.998;7.788;2024-03-08T06:55:17;19.00;73.40
11426;DHT22;5769;47.998;7.788;2024-03-08T06:57:47;19.00;73.30
11426;DHT22;5769;47.998;7.788;2024-03-08T07:00:14;19.00;73.30
11426;DHT22;5769;47.998;7.788;2024-03-08T07:02:44;19.00;73.30
11426;DHT22;5769;47.998;7.788;2024-03-08T07:05:15;19.00;73.40
11426;DHT22;5769;47.998;7.788;2024-03-08T07:07:42;19.00;73.40
11426;DHT22;5769;47.998;7.788;2024-03-08T07:10:09;19.00;73.30
11426;DHT22;5769;47.998;7.788;2024-03-08T07:12:42;19.00;73.30
11426;DHT22;5769;47.998;7.788;2024-03-08T07:15:12;19.00;73.30
11426;DHT22;5769;47.998;7.788;2024-03-08T07:17:44;19.00;73.30
11426;DHT22;5769;47.998;7.788;2024-03-08T07:20:11;19.00;73.30
11426;DHT22;5769;47.998;7.788;2024-03-08T07:22:47;19.00;73.30
11426;DHT22;5769;47.998;7.788;2024-03-08T07:25:16;19.00;73.30
11426;DHT22;5769;47.998;7.788;2024-03-08T07:27:48;19.00;73.30
11426;DHT22;5769;47.998;7.788;2024-03-08T07:30:19;19.00;73.30
11426;DHT22;5769;47.998;7.788;2024-03-08T07:33:03;19.00;73.30
11426;DHT22;5769;47.998;7.788;2024-03-08T07:35:32;18.90;73.30
11426;DHT22;5769;47.998;7.788;2024-03-08T07:38:05;18.90;73.30
11426;DHT22;5769;47.998;7.788;2024-03-08T07:40:35;18.90;73.30
11426;DHT22;5769;47.998;7.788;2024-03-08T07:43:05;19.00;73.40
11426;DHT22;5769;47.998;7.788;2024-03-08T07:45:36;19.00;73.30
11426;DHT22;5769;47.998;7.788;2024-03-08T07:48:06;18.90;73.30
11426;DHT22;5769;47.998;7.788;2024-03-08T07:50:36;18.90;73.30
11426;DHT22;5769;47.998;7.788;2024-03-08T07:53:06;19.00;73.30
11426;DHT22;5769;47.998;7.788;2024-03-08T07:55:35;19.00;73.30
11426;DHT22;5769;47.998;7.788;2024-03-08T07:58:08;19.00;73.30
11426;DHT22;5769;47.998;7.788;2024-03-08T08:00:41;18.90;73.20
11426;DHT22;5769;47.998;7.788;2024-03-08T08:03:11;18.90;73.30
11426;DHT22;5769;47.998;7.788;2024-03-08T08:05:41;19.00;73.30
11426;DHT22;5769;47.998;7.788;2024-03-08T08:08:11;19.00;73.30
11426;DHT22;5769;47.998;7.788;2024-03-08T08:10:41;18.90;73.20
11426;DHT22;5769;47.998;7.788;2024-03-08T08:13:09;18.90;73.20
11426;DHT22;5769;47.998;7.788;2024-03-08T08:15:41;18.90;73.20
11426;DHT22;5769;47.998;7.788;2024-03-08T08:18:09;18.90;73.20
11426;DHT22;5769;47.998;7.788;2024-03-08T08:20:36;18.90;73.30
11426;DHT22;5769;47.998;7.788;2024-03-08T08:23:04;19.00;73.30
11426;DHT22;5769;47.998;7.788;2024-03-08T08:25:31;18.90;73.30
11426;DHT22;5769;47.998;7.788;2024-03-08T08:28:00;18.90;73.30
11426;DHT22;5769;47.998;7.788;2024-03-08T08:30:30;18.90;73.30
11426;DHT22;5769;47.998;7.788;2024-03-08T08:32:58;18.90;73.20
11426;DHT22;5769;47.998;7.788;2024-03-08T08:35:26;18.90;73.20
11426;DHT22;5769;47.998;7.788;2024-03-08T08:37:54;18.90;73.20
11426;DHT22;5769;47.998;7.788;2024-03-08T08:40:20;18.90;73.20
11426;DHT22;5769;47.998;7.788;2024-03-08T08:42:50;18.90;73.20
11426;DHT22;5769;47.998;7.788;2024-03-08T08:45:18;18.90;73.20
11426;DHT22;5769;47.998;7.788;2024-03-08T08:47:49;18.90;73.20
11426;DHT22;5769;47.998;7.788;2024-03-08T08:50:16;18.90;73.20
11426;DHT22;5769;47.998;7.788;2024-03-08T08:52:49;18.90;73.20
11426;DHT22;5769;47.998;7.788;2024-03-08T08:55:16;18.90;73.20
11426;DHT22;5769;47.998;7.788;2024-03-08T08:57:49;18.90;73.20
11426;DHT22;5769;47.998;7.788;2024-03-08T09:00:18;18.90;73.20
11426;DHT22;5769;47.998;7.788;2024-03-08T09:02:45;18.90;73.20
11426;DHT22;5769;47.998;7.788;2024-03-08T09:05:14;18.90;73.30
11426;DHT22;5769;47.998;7.788;2024-03-08T09:07:42;18.90;73.20
11426;DHT22;5769;47.998;7.788;2024-03-08T09:10:11;18.90;73.30
11426;DHT22;5769;47.998;7.788;2024-03-08T09:12:39;18.90;73.20
11426;DHT22;5769;47.998;7.788;2024-03-08T09:15:07;18.90;73.30
11426;DHT22;5769;47.998;7.788;2024-03-08T09:17:36;18.90;73.30
11426;DHT22;5769;47.998;7.788;2024-03-08T09:20:06;18.90;73.30
11426;DHT22;5769;47.998;7.788;2024-03-08T09:22:34;18.80;73.20
11426;DHT22;5769;47.998;7.788;2024-03-08T09:25:04;18.90;73.20
11426;DHT22;5769;47.998;7.788;2024-03-08T09:27:32;18.90;73.30
11426;DHT22;5769;47.998;7.788;2024-03-08T09:30:00;18.90;73.30
11426;DHT22;5769;47.998;7.788;2024-03-08T09:32:29;18.90;73.30
11426;DHT22;5769;47.998;7.788;2024-03-08T09:34:57;18.90;73.30
11426;DHT22;5769;47.998;7.788;2024-03-08T09:37:23;18.90;73.30
11426;DHT22;5769;47.998;7.788;2024-03-08T09:39:51;18.90;73.30
11426;DHT22;5769;47.998;7.788;2024-03-08T09:42:18;18.90;73.20
11426;DHT22;5769;47.998;7.788;2024-03-08T09:44:46;18.90;73.20
11426;DHT22;5769;47.998;7.788;2024-03-08T09:47:14;18.90;73.20
11426;DHT22;5769;47.998;7.788;2024-03-08T09:49:40;18.90;73.20
11426;DHT22;5769;47.998;7.788;2024-03-08T09:52:09;18.80;73.20
11426;DHT22;5769;47.998;7.788;2024-03-08T09:54:37;18.80;73.20
11426;DHT22;5769;47.998;7.788;2024-03-08T09:57:06;18.90;73.30
11426;DHT22;5769;47.998;7.788;2024-03-08T09:59:34;18.90;73.10
11426;DHT22;5769;47.998;7.788;2024-03-08T10:02:14;18.90;73.20
11426;DHT22;5769;47.998;7.788;2024-03-08T10:04:42;18.90;73.20
11426;DHT22;5769;47.998;7.788;2024-03-08T10:07:12;18.90;73.30
11426;DHT22;5769;47.998;7.788;2024-03-08T10:09:39;18.90;73.40
11426;DHT22;5769;47.998;7.788;2024-03-08T10:12:17;18.90;73.40
11426;DHT22;5769;47.998;7.788;2024-03-08T10:14:47;19.00;73.40
11426;DHT22;5769;47.998;7.788;2024-03-08T10:17:14;18.90;73.40
11426;DHT22;5769;47.998;7.788;2024-03-08T10:19:51;18.90;73.40
11426;DHT22;5769;47.998;7.788;2024-03-08T10:22:19;19.00;73.50
11426;DHT22;5769;47.998;7.788;2024-03-08T10:24:46;19.00;73.50
11426;DHT22;5769;47.998;7.788;2024-03-08T10:27:13;19.00;73.50
11426;DHT22;5769;47.998;7.788;2024-03-08T10:29:43;19.00;73.60
11426;DHT22;5769;47.998;7.788;2024-03-08T10:32:21;19.00;73.60
11426;DHT22;5769;47.998;7.788;2024-03-08T10:34:50;19.00;73.60
11426;DHT22;5769;47.998;7.788;2024-03-08T10:37:24;19.00;73.60
11426;DHT22;5769;47.998;7.788;2024-03-08T10:40:03;19.00;73.60
11426;DHT22;5769;47.998;7.788;2024-03-08T10:42:40;19.00;73.60
11426;DHT22;5769;47.998;7.788;2024-03-08T10:45:15;19.00;73.60
11426;DHT22;5769;47.998;7.788;2024-03-08T10:47:49;19.00;73.60
11426;DHT22;5769;47.998;7.788;2024-03-08T10:50:30;19.00;73.60
11426;DHT22;5769;47.998;7.788;2024-03-08T10:53:07;19.00;73.60
11426;DHT22;5769;47.998;7.788;2024-03-08T10:55:37;19.10;73.70
11426;DHT22;5769;47.998;7.788;2024-03-08T10:58:06;19.10;73.60
11426;DHT22;5769;47.998;7.788;2024-03-08T11:00:35;19.10;73.50
11426;DHT22;5769;47.998;7.788;2024-03-08T11:03:03;19.10;73.40
11426;DHT22;5769;47.998;7.788;2024-03-08T11:05:37;19.10;73.50
11426;DHT22;5769;47.998;7.788;2024-03-08T11:08:15;19.00;73.30
11426;DHT22;5769;47.998;7.788;2024-03-08T11:10:47;19.00;73.30
11426;DHT22;5769;47.998;7.788;2024-03-08T11:13:35;19.00;73.30
11426;DHT22;5769;47.998;7.788;2024-03-08T11:16:07;19.00;73.30
11426;DHT22;5769;47.998;7.788;2024-03-08T11:18:35;19.00;73.00
11426;DHT22;5769;47.998;7.788;2024-03-08T11:21:03;19.10;73.10
11426;DHT22;5769;47.998;7.788;2024-03-08T11:23:32;19.10;73.10
11426;DHT22;5769;47.998;7.788;2024-03-08T11:25:59;19.10;73.10
11426;DHT22;5769;47.998;7.788;2024-03-08T11:28:26;19.10;73.10
11426;DHT22;5769;47.998;7.788;2024-03-08T11:31:25;19.10;73.10
11426;DHT22;5769;47.998;7.788;2024-03-08T11:33:54;19.10;73.00
11426;DHT22;5769;47.998;7.788;2024-03-08T11:36:23;19.10;72.90
11426;DHT22;5769;47.998;7.788;2024-03-08T11:38:51;19.00;72.90
11426;DHT22;5769;47.998;7.788;2024-03-08T11:41:19;19.00;72.80
11426;DHT22;5769;47.998;7.788;2024-03-08T11:43:46;19.00;72.80
11426;DHT22;5769;47.998;7.788;2024-03-08T11:46:14;19.00;72.80
11426;DHT22;5769;47.998;7.788;2024-03-08T11:48:44;19.10;72.40
11426;DHT22;5769;47.998;7.788;2024-03-08T11:51:15;19.10;72.40
11426;DHT22;5769;47.998;7.788;2024-03-08T11:53:44;19.10;72.40
11426;DHT22;5769;47.998;7.788;2024-03-08T11:56:12;19.10;72.40
11426;DHT22;5769;47.998;7.788;2024-03-08T11:58:40;19.10;72.40
11426;DHT22;5769;47.998;7.788;2024-03-08T12:01:08;19.10;72.50
11426;DHT22;5769;47.998;7.788;2024-03-08T12:03:37;19.10;72.50
11426;DHT22;5769;47.998;7.788;2024-03-08T12:06:06;19.10;72.60
11426;DHT22;5769;47.998;7.788;2024-03-08T12:08:35;19.10;72.70
11426;DHT22;5769;47.998;7.788;2024-03-08T12:11:03;19.10;72.70
11426;DHT22;5769;47.998;7.788;2024-03-08T12:13:32;19.10;72.70
11426;DHT22;5769;47.998;7.788;2024-03-08T12:16:00;19.20;72.80
11426;DHT22;5769;47.998;7.788;2024-03-08T12:18:33;19.20;72.60
11426;DHT22;5769;47.998;7.788;2024-03-08T12:21:09;19.20;72.60
11426;DHT22;5769;47.998;7.788;2024-03-08T12:23:38;19.20;72.60
11426;DHT22;5769;47.998;7.788;2024-03-08T12:26:11;19.20;72.60
11426;DHT22;5769;47.998;7.788;2024-03-08T12:28:39;19.20;72.70
11426;DHT22;5769;47.998;7.788;2024-03-08T12:31:07;19.20;72.80
11426;DHT22;5769;47.998;7.788;2024-03-08T12:33:36;19.20;72.90
11426;DHT22;5769;47.998;7.788;2024-03-08T12:36:03;19.20;72.90
11426;DHT22;5769;47.998;7.788;2024-03-08T12:38:34;19.20;72.90
11426;DHT22;5769;47.998;7.788;2024-03-08T12:41:03;19.20;72.90
11426;DHT22;5769;47.998;7.788;2024-03-08T12:43:30;19.20;72.90
11426;DHT22;5769;47.998;7.788;2024-03-08T12:45:57;19.20;73.00
11426;DHT22;5769;47.998;7.788;2024-03-08T12:48:23;19.20;73.00
11426;DHT22;5769;47.998;7.788;2024-03-08T12:50:50;19.20;73.00
11426;DHT22;5769;47.998;7.788;2024-03-08T12:53:17;19.20;73.00
11426;DHT22;5769;47.998;7.788;2024-03-08T12:55:45;19.20;73.00
11426;DHT22;5769;47.998;7.788;2024-03-08T12:58:12;19.20;72.90
11426;DHT22;5769;47.998;7.788;2024-03-08T13:00:39;19.20;72.90
11426;DHT22;5769;47.998;7.788;2024-03-08T13:03:09;19.20;72.90
11426;DHT22;5769;47.998;7.788;2024-03-08T13:05:36;19.20;72.90
11426;DHT22;5769;47.998;7.788;2024-03-08T13:08:05;19.20;72.90
11426;DHT22;5769;47.998;7.788;2024-03-08T13:10:37;19.20;72.90
11426;DHT22;5769;47.998;7.788;2024-03-08T13:13:06;19.20;73.00
11426;DHT22;5769;47.998;7.788;2024-03-08T13:15:35;19.20;73.00
11426;DHT22;5769;47.998;7.788;2024-03-08T13:18:02;19.10;72.90
11426;DHT22;5769;47.998;7.788;2024-03-08T13:20:29;19.10;73.00
11426;DHT22;5769;47.998;7.788;2024-03-08T13:22:55;19.10;72.90
11426;DHT22;5769;47.998;7.788;2024-03-08T13:25:24;19.10;72.90
11426;DHT22;5769;47.998;7.788;2024-03-08T13:27:52;19.10;72.80
11426;DHT22;5769;47.998;7.788;2024-03-08T13:30:20;19.10;72.80
11426;DHT22;5769;47.998;7.788;2024-03-08T13:32:52;19.10;72.80
11426;DHT22;5769;47.998;7.788;2024-03-08T13:35:19;19.10;72.80
11426;DHT22;5769;47.998;7.788;2024-03-08T13:37:50;19.10;72.80
11426;DHT22;5769;47.998;7.788;2024-03-08T13:40:17;19.10;72.80
11426;DHT22;5769;47.998;7.788;2024-03-08T13:42:45;19.10;72.80
11426;DHT22;5769;47.998;7.788;2024-03-08T13:45:14;19.10;72.70
11426;DHT22;5769;47.998;7.788;2024-03-08T13:47:44;19.10;72.70
11426;DHT22;5769;47.998;7.788;2024-03-08T13:50:11;19.10;72.70
11426;DHT22;5769;47.998;7.788;2024-03-08T13:52:39;19.10;72.70
11426;DHT22;5769;47.998;7.788;2024-03-08T13:55:06;19.10;72.70
11426;DHT22;5769;47.998;7.788;2024-03-08T13:57:38;19.10;72.60
11426;DHT22;5769;47.998;7.788;2024-03-08T14:00:06;19.10;72.60
11426;DHT22;5769;47.998;7.788;2024-03-08T14:02:33;19.10;72.50
11426;DHT22;5769;47.998;7.788;2024-03-08T14:05:04;19.20;72.60
11426;DHT22;5769;47.998;7.788;2024-03-08T14:07:33;19.10;72.40
11426;DHT22;5769;47.998;7.788;2024-03-08T14:10:00;19.10;72.40
11426;DHT22;5769;47.998;7.788;2024-03-08T14:12:27;19.10;72.50
11426;DHT22;5769;47.998;7.788;2024-03-08T14:14:54;19.10;72.40
11426;DHT22;5769;47.998;7.788;2024-03-08T14:17:21;19.10;72.40
11426;DHT22;5769;47.998;7.788;2024-03-08T14:19:48;19.10;72.40
11426;DHT22;5769;47.998;7.788;2024-03-08T14:22:17;19.10;72.40
11426;DHT22;5769;47.998;7.788;2024-03-08T14:24:43;19.10;72.40
11426;DHT22;5769;47.998;7.788;2024-03-08T14:27:10;19.10;72.40
11426;DHT22;5769;47.998;7.788;2024-03-08T14:29:38;19.10;72.40
11426;DHT22;5769;47.998;7.788;2024-03-08T14:32:04;19.10;72.40
11426;DHT22;5769;47.998;7.788;2024-03-08T14:34:32;19.10;72.40
11426;DHT22;5769;47.998;7.788;2024-03-08T14:37:00;19.10;72.40
11426;DHT22;5769;47.998;7.788;2024-03-08T14:39:31;19.10;72.40
11426;DHT22;5769;47.998;7.788;2024-03-08T14:41:59;19.10;72.40
11426;DHT22;5769;47.998;7.788;2024-03-08T14:44:27;19.10;72.40
11426;DHT22;5769;47.998;7.788;2024-03-08T14:46:55;19.10;72.40
11426;DHT22;5769;47.998;7.788;2024-03-08T14:49:23;19.10;72.40
11426;DHT22;5769;47.998;7.788;2024-03-08T14:51:51;19.10;72.40
11426;DHT22;5769;47.998;7.788;2024-03-08T14:54:19;19.10;72.50
11426;DHT22;5769;47.998;7.788;2024-03-08T14:56:49;19.10;72.40
11426;DHT22;5769;47.998;7.788;2024-03-08T14:59:17;19.10;72.40
11426;DHT22;5769;47.998;7.788;2024-03-08T15:01:45;19.10;72.40
11426;DHT22;5769;47.998;7.788;2024-03-08T15:04:12;19.00;72.40
11426;DHT22;5769;47.998;7.788;2024-03-08T15:06:39;19.00;72.50
11426;DHT22;5769;47.998;7.788;2024-03-08T15:09:08;19.10;72.50
11426;DHT22;5769;47.998;7.788;2024-03-08T15:11:44;19.10;72.50
11426;DHT22;5769;47.998;7.788;2024-03-08T15:14:13;19.00;72.50
11426;DHT22;5769;47.998;7.788;2024-03-08T15:16:39;19.00;72.40
11426;DHT22;5769;47.998;7.788;2024-03-08T15:19:08;19.00;72.50
11426;DHT22;5769;47.998;7.788;2024-03-08T15:21:34;19.00;72.50
11426;DHT22;5769;47.998;7.788;2024-03-08T15:24:02;19.00;72.50
11426;DHT22;5769;47.998;7.788;2024-03-08T15:26:29;19.00;72.50
11426;DHT22;5769;47.998;7.788;2024-03-08T15:28:57;19.00;72.50
11426;DHT22;5769;47.998;7.788;2024-03-08T15:31:26;19.00;72.50
11426;DHT22;5769;47.998;7.788;2024-03-08T15:33:53;19.00;72.60
11426;DHT22;5769;47.998;7.788;2024-03-08T15:36:26;18.90;72.50
11426;DHT22;5769;47.998;7.788;2024-03-08T15:38:56;18.90;72.50
11426;DHT22;5769;47.998;7.788;2024-03-08T15:41:23;18.90;72.50
11426;DHT22;5769;47.998;7.788;2024-03-08T15:43:52;18.90;72.50
11426;DHT22;5769;47.998;7.788;2024-03-08T15:46:20;19.00;72.60
11426;DHT22;5769;47.998;7.788;2024-03-08T15:48:49;19.00;72.60
11426;DHT22;5769;47.998;7.788;2024-03-08T15:51:16;18.90;72.50
11426;DHT22;5769;47.998;7.788;2024-03-08T15:53:44;19.00;72.60
11426;DHT22;5769;47.998;7.788;2024-03-08T15:56:18;19.00;72.60
11426;DHT22;5769;47.998;7.788;2024-03-08T15:58:45;18.90;72.60